Time;durP1;ratioP1;P1;durP2;ratioP2;P2;SDS_P1;SDS_P2;PMS_P1;PMS_P2;Temp;Humidity;BMP_temperature;BMP_pressure;BME280_temperature;BME280_humidity;BME280_pressure;Samples;Min_cycle;Max_cycle;Signal;HPM_P1;HPM_P2
2024/01/21 00:01:29;;;;;;;52.87;26.83;;;-8.00;99.90;;;;;;5092202;28;20204;-74
2024/01/21 00:03:56;;;;;;;55.10;27.53;;;-7.90;99.90;;;;;;5092243;28;20283;-74
2024/01/21 00:06:23;;;;;;;47.57;26.30;;;-8.00;99.90;;;;;;5092217;28;20201;-73
2024/01/21 00:08:50;;;;;;;49.63;26.10;;;-8.00;99.90;;;;;;5092314;28;20210;-74
2024/01/21 00:11:16;;;;;;;49.87;26.63;;;-8.00;99.90;;;;;;5092301;28;20200;-74
2024/01/21 00:13:43;;;;;;;44.33;25.60;;;-8.00;99.90;;;;;;5094403;28;20272;-74
2024/01/21 00:16:09;;;;;;;46.77;26.03;;;-8.00;99.90;;;;;;5095841;28;20192;-74
2024/01/21 00:18:37;;;;;;;44.57;23.80;;;-8.00;99.90;;;;;;5095704;28;20654;-74
2024/01/21 00:21:04;;;;;;;49.47;25.73;;;-8.00;99.90;;;;;;5095639;28;20204;-74
2024/01/21 00:23:31;;;;;;;46.47;24.83;;;-8.10;99.90;;;;;;5095841;28;20208;-74
2024/01/21 00:25:58;;;;;;;46.13;25.27;;;-8.10;99.90;;;;;;5096005;28;20199;-73
2024/01/21 00:28:25;;;;;;;45.27;24.97;;;-8.10;99.90;;;;;;5095767;28;20318;-73
2024/01/21 00:30:52;;;;;;;46.27;25.17;;;-8.10;99.90;;;;;;5095628;28;20556;-74
2024/01/21 00:33:20;;;;;;;48.97;25.37;;;-8.00;99.90;;;;;;5095528;28;20220;-74
2024/01/21 00:35:48;;;;;;;49.30;25.57;;;-8.00;99.90;;;;;;5095789;28;20192;-73
2024/01/21 00:38:14;;;;;;;47.73;24.60;;;-8.00;99.90;;;;;;5095708;28;20540;-73
2024/01/21 00:40:41;;;;;;;44.83;24.03;;;-8.00;99.90;;;;;;5095472;28;20199;-73
2024/01/21 00:43:07;;;;;;;51.70;25.63;;;-8.00;99.90;;;;;;5095370;28;20282;-73
2024/01/21 00:45:34;;;;;;;50.27;25.00;;;-8.00;99.90;;;;;;5095357;28;20200;-73
2024/01/21 00:48:01;;;;;;;46.97;25.80;;;-7.90;99.90;;;;;;5095205;28;20200;-73
2024/01/21 00:50:27;;;;;;;42.83;23.40;;;-8.00;99.90;;;;;;5095212;28;20200;-73
2024/01/21 00:52:55;;;;;;;44.63;24.73;;;-8.00;99.90;;;;;;5095228;28;20227;-73
2024/01/21 00:55:22;;;;;;;43.90;24.93;;;-8.00;99.90;;;;;;5095249;28;20245;-73
2024/01/21 00:57:49;;;;;;;45.33;24.57;;;-8.00;99.90;;;;;;5095266;28;20199;-73
2024/01/21 01:00:16;;;;;;;46.73;24.17;;;-7.90;99.90;;;;;;5094922;28;20196;-73
2024/01/21 01:02:43;;;;;;;43.17;23.43;;;-7.90;99.90;;;;;;5094890;28;20200;-72
2024/01/21 01:05:09;;;;;;;46.50;24.43;;;-8.00;99.90;;;;;;5095130;28;20563;-73
2024/01/21 01:07:36;;;;;;;48.73;25.30;;;-8.00;99.90;;;;;;5095089;28;20196;-73
2024/01/21 01:10:04;;;;;;;41.13;23.87;;;-8.00;99.90;;;;;;5094909;28;20207;-73
2024/01/21 01:12:31;;;;;;;41.57;23.33;;;-8.00;99.90;;;;;;5094844;28;20231;-73
2024/01/21 01:14:58;;;;;;;47.60;24.17;;;-8.00;99.90;;;;;;5094729;28;20529;-73
2024/01/21 01:17:24;;;;;;;44.53;23.37;;;-8.10;99.90;;;;;;5094935;28;20196;-72
2024/01/21 01:19:51;;;;;;;43.73;23.57;;;-8.10;99.90;;;;;;5094829;28;20199;-71
2024/01/21 01:22:18;;;;;;;44.37;24.03;;;-8.20;99.90;;;;;;5102407;28;20203;-72
2024/01/21 01:24:44;;;;;;;42.50;23.70;;;-8.20;99.90;;;;;;5093729;28;20200;-72
2024/01/21 01:27:12;;;;;;;37.43;21.87;;;-8.20;99.90;;;;;;5094557;28;20294;-73
2024/01/21 01:29:39;;;;;;;44.43;23.63;;;-8.30;99.90;;;;;;5094419;28;20196;-72
2024/01/21 01:32:06;;;;;;;41.43;22.30;;;-8.30;99.90;;;;;;5094615;28;20263;-73
2024/01/21 01:34:33;;;;;;;46.70;23.43;;;-8.30;99.90;;;;;;5094515;28;20241;-72
2024/01/21 01:37:00;;;;;;;44.17;22.40;;;-8.30;99.90;;;;;;5094606;28;20204;-74
2024/01/21 01:39:27;;;;;;;43.10;23.80;;;-8.30;99.90;;;;;;5094500;28;20196;-73
2024/01/21 01:41:53;;;;;;;46.10;23.23;;;-8.30;99.90;;;;;;5094520;28;20199;-73
2024/01/21 01:44:22;;;;;;;44.03;24.97;;;-8.30;99.90;;;;;;5094273;28;20213;-73
2024/01/21 01:46:49;;;;;;;46.10;24.87;;;-8.30;99.90;;;;;;5094298;28;20206;-73
2024/01/21 01:49:16;;;;;;;49.03;24.40;;;-8.20;99.90;;;;;;5094257;28;20225;-73
2024/01/21 01:51:43;;;;;;;42.60;23.33;;;-8.20;99.90;;;;;;5094237;28;20563;-73
2024/01/21 01:54:10;;;;;;;42.87;23.67;;;-8.20;99.90;;;;;;5094132;28;20234;-73
2024/01/21 01:56:37;;;;;;;48.07;23.60;;;-8.20;99.90;;;;;;5094210;28;20665;-73
2024/01/21 01:59:09;;;;;;;44.30;23.73;;;-8.20;99.90;;;;;;5094017;28;20205;-73
2024/01/21 02:01:38;;;;;;;44.07;24.13;;;-8.30;99.90;;;;;;5094259;28;20208;-73
2024/01/21 02:04:07;;;;;;;46.93;24.13;;;-8.20;99.90;;;;;;5094031;28;20208;-73
2024/01/21 02:06:37;;;;;;;44.53;23.00;;;-8.30;99.90;;;;;;5093926;28;20732;-73
2024/01/21 02:09:13;;;;;;;46.93;25.17;;;-8.30;99.90;;;;;;5094043;28;20202;-73
2024/01/21 02:11:49;;;;;;;45.90;24.67;;;-8.30;99.90;;;;;;5094265;28;20198;-73
2024/01/21 02:14:16;;;;;;;46.60;23.63;;;-8.30;99.90;;;;;;5093982;28;20223;-73
2024/01/21 02:16:46;;;;;;;46.57;23.43;;;-8.20;99.90;;;;;;5093662;28;20538;-73
2024/01/21 02:19:26;;;;;;;41.00;23.40;;;-8.20;99.90;;;;;;5093606;28;20192;-74
2024/01/21 02:21:53;;;;;;;47.07;23.67;;;-8.20;99.90;;;;;;5093102;28;20664;-74
2024/01/21 02:24:21;;;;;;;40.73;22.53;;;-8.30;99.90;;;;;;5093910;28;20209;-73
2024/01/21 02:26:50;;;;;;;45.10;23.37;;;-8.40;99.90;;;;;;5093508;28;20245;-72
2024/01/21 02:29:20;;;;;;;46.50;24.27;;;-8.40;99.90;;;;;;5093604;28;20195;-72
2024/01/21 02:31:48;;;;;;;38.23;22.20;;;-8.40;99.90;;;;;;5093477;28;20196;-73
2024/01/21 02:34:15;;;;;;;47.50;24.37;;;-8.40;99.90;;;;;;5093381;28;20238;-73
2024/01/21 02:36:41;;;;;;;51.50;23.67;;;-8.40;99.90;;;;;;5093194;28;20207;-75
2024/01/21 02:39:08;;;;;;;48.20;24.87;;;-8.60;99.90;;;;;;5093498;28;20203;-74
2024/01/21 02:41:36;;;;;;;45.73;22.73;;;-8.50;99.90;;;;;;5093335;28;20200;-73
2024/01/21 02:44:03;;;;;;;39.43;21.97;;;-8.50;99.90;;;;;;5093398;28;20205;-73
2024/01/21 02:46:30;;;;;;;39.77;21.30;;;-8.60;99.90;;;;;;5092463;28;20226;-73
2024/01/21 02:48:58;;;;;;;42.67;21.87;;;-8.60;99.90;;;;;;5092628;28;20198;-74
2024/01/21 02:51:25;;;;;;;39.07;21.67;;;-8.60;99.90;;;;;;5093428;28;20199;-73
2024/01/21 02:53:51;;;;;;;41.23;21.83;;;-8.60;99.90;;;;;;5093305;28;20235;-73
2024/01/21 02:56:22;;;;;;;42.47;21.57;;;-8.60;99.90;;;;;;5093192;28;20566;-73
2024/01/21 02:58:50;;;;;;;40.23;21.10;;;-8.60;99.90;;;;;;5093101;28;20200;-73
2024/01/21 03:01:17;;;;;;;42.60;21.53;;;-8.60;99.90;;;;;;5092898;28;20205;-74
2024/01/21 03:03:44;;;;;;;41.37;21.53;;;-8.60;99.90;;;;;;5093073;28;20538;-73
2024/01/21 03:06:11;;;;;;;37.27;21.23;;;-8.50;99.90;;;;;;5093348;28;20210;-73
2024/01/21 03:08:38;;;;;;;37.60;21.00;;;-8.60;99.90;;;;;;5093096;28;20570;-73
2024/01/21 03:11:05;;;;;;;39.53;20.70;;;-8.60;99.90;;;;;;5092775;28;20195;-73
2024/01/21 03:13:32;;;;;;;39.47;20.13;;;-8.60;99.90;;;;;;5092854;28;20231;-72
2024/01/21 03:16:01;;;;;;;42.00;20.93;;;-8.60;99.90;;;;;;5092683;28;20202;-73
2024/01/21 03:18:27;;;;;;;44.63;20.97;;;-8.60;99.90;;;;;;5092863;28;20195;-73
2024/01/21 03:20:54;;;;;;;37.90;20.63;;;-8.60;99.90;;;;;;5092802;28;20237;-73
2024/01/21 03:23:20;;;;;;;35.73;20.27;;;-8.50;99.90;;;;;;5092780;28;20280;-72
2024/01/21 03:25:47;;;;;;;38.63;19.80;;;-8.60;99.90;;;;;;5092634;28;20265;-72
2024/01/21 03:28:14;;;;;;;34.60;20.23;;;-8.50;99.90;;;;;;5092434;28;20289;-72
2024/01/21 03:30:40;;;;;;;36.63;20.63;;;-8.60;99.90;;;;;;5092514;28;20198;-72
2024/01/21 03:33:08;;;;;;;39.33;20.30;;;-8.60;99.90;;;;;;5092572;28;20585;-72
2024/01/21 03:35:35;;;;;;;38.13;21.10;;;-8.70;99.90;;;;;;5092738;28;20293;-72
2024/01/21 03:38:02;;;;;;;34.13;19.83;;;-8.70;99.90;;;;;;5092686;28;20195;-72
2024/01/21 03:40:28;;;;;;;37.50;20.43;;;-8.70;99.90;;;;;;5092778;28;20200;-74
2024/01/21 03:42:55;;;;;;;37.93;22.43;;;-8.70;99.90;;;;;;5092411;28;20256;-72
2024/01/21 03:45:22;;;;;;;35.90;19.97;;;-8.80;99.90;;;;;;5094286;28;20199;-72
2024/01/21 03:47:48;;;;;;;42.40;22.13;;;-8.80;99.90;;;;;;5098179;28;20203;-73
2024/01/21 03:50:19;;;;;;;39.20;20.30;;;-8.70;99.90;;;;;;5096538;28;20301;-73
2024/01/21 03:52:47;;;;;;;42.23;21.77;;;-8.70;99.90;;;;;;5096463;28;20219;-72
2024/01/21 03:55:13;;;;;;;41.87;21.23;;;-8.60;99.90;;;;;;5096298;28;20199;-73
2024/01/21 03:57:40;;;;;;;35.23;20.40;;;-8.60;99.90;;;;;;5096583;28;20209;-73
2024/01/21 04:00:09;;;;;;;33.93;20.73;;;-8.60;99.90;;;;;;5096449;28;20233;-73
2024/01/21 04:02:35;;;;;;;33.87;19.43;;;-8.70;99.90;;;;;;5096331;28;20263;-72
2024/01/21 04:05:02;;;;;;;37.43;19.13;;;-8.80;99.90;;;;;;5096269;28;20202;-72
2024/01/21 04:07:31;;;;;;;34.70;18.10;;;-8.90;99.90;;;;;;5096179;28;20565;-73
2024/01/21 04:09:57;;;;;;;33.60;19.17;;;-9.00;99.90;;;;;;5096189;28;20198;-73
2024/01/21 04:12:24;;;;;;;39.90;20.43;;;-9.00;99.90;;;;;;5095957;28;20731;-73
2024/01/21 04:14:51;;;;;;;36.43;18.90;;;-8.80;99.90;;;;;;5095742;28;20232;-73
2024/01/21 04:17:18;;;;;;;34.70;18.80;;;-8.90;99.90;;;;;;5096036;28;20251;-72
2024/01/21 04:19:45;;;;;;;31.03;18.90;;;-9.00;99.90;;;;;;5095982;28;20198;-72
2024/01/21 04:22:12;;;;;;;33.87;18.80;;;-8.80;99.90;;;;;;5095752;28;20195;-72
2024/01/21 04:24:40;;;;;;;33.00;18.67;;;-8.80;99.90;;;;;;5095688;28;20209;-72
2024/01/21 04:27:07;;;;;;;32.83;17.60;;;-8.90;99.90;;;;;;5095873;28;20279;-72
2024/01/21 04:29:33;;;;;;;32.97;18.67;;;-8.90;99.90;;;;;;5095825;28;20610;-72
2024/01/21 04:32:00;;;;;;;30.60;17.70;;;-9.10;99.90;;;;;;5095711;28;20211;-72
2024/01/21 04:34:27;;;;;;;34.53;18.33;;;-9.10;99.90;;;;;;5095678;28;20234;-72
2024/01/21 04:36:53;;;;;;;30.90;18.03;;;-9.10;99.90;;;;;;5095783;28;20202;-72
2024/01/21 04:39:22;;;;;;;31.73;18.30;;;-9.10;99.90;;;;;;5095587;28;20198;-72
2024/01/21 04:41:50;;;;;;;32.87;18.13;;;-9.00;99.90;;;;;;5095634;28;20193;-73
2024/01/21 04:44:17;;;;;;;29.53;17.93;;;-8.90;99.90;;;;;;5095533;28;20206;-73
2024/01/21 04:46:43;;;;;;;33.17;18.67;;;-8.90;99.90;;;;;;5095487;28;20204;-73
2024/01/21 04:49:10;;;;;;;29.67;18.20;;;-8.80;99.90;;;;;;5095269;28;20242;-72
2024/01/21 04:51:37;;;;;;;30.90;18.57;;;-8.70;99.90;;;;;;5095218;28;20198;-72
2024/01/21 04:54:04;;;;;;;32.67;18.60;;;-8.60;99.90;;;;;;5094910;28;20231;-72
2024/01/21 04:56:31;;;;;;;32.03;18.57;;;-8.50;99.90;;;;;;5095325;28;20338;-72
2024/01/21 04:58:59;;;;;;;28.93;18.27;;;-8.50;99.90;;;;;;5095027;28;20653;-72
2024/01/21 05:01:26;;;;;;;31.23;18.13;;;-8.30;99.90;;;;;;5095101;28;20212;-73
2024/01/21 05:03:53;;;;;;;35.20;18.47;;;-8.20;99.90;;;;;;5094936;28;20297;-73
2024/01/21 05:06:20;;;;;;;31.30;18.53;;;-8.20;99.90;;;;;;5095155;28;20199;-73
2024/01/21 05:08:46;;;;;;;35.07;19.30;;;-8.10;99.90;;;;;;5095128;28;20260;-72
2024/01/21 05:11:13;;;;;;;32.03;17.83;;;-8.00;99.90;;;;;;5095140;28;20203;-72
2024/01/21 05:13:40;;;;;;;28.03;18.30;;;-7.90;99.90;;;;;;5094889;28;20772;-73
2024/01/21 05:16:08;;;;;;;32.27;18.87;;;-7.90;99.90;;;;;;5094865;28;20253;-72
2024/01/21 05:18:37;;;;;;;31.03;17.77;;;-7.80;99.90;;;;;;5094730;28;20612;-73
2024/01/21 05:21:04;;;;;;;32.03;19.23;;;-7.80;99.90;;;;;;5094839;28;20200;-73
2024/01/21 05:23:31;;;;;;;30.97;18.63;;;-7.70;99.90;;;;;;5094799;28;20607;-73
2024/01/21 05:25:58;;;;;;;30.87;18.53;;;-7.60;99.90;;;;;;5094957;28;20200;-74
2024/01/21 05:28:24;;;;;;;36.83;18.03;;;-7.60;99.90;;;;;;5094384;28;20704;-73
2024/01/21 05:30:51;;;;;;;29.13;18.00;;;-7.60;99.90;;;;;;5094567;28;20200;-72
2024/01/21 05:33:19;;;;;;;28.20;17.37;;;-7.60;99.90;;;;;;5094385;28;20555;-73
2024/01/21 05:35:45;;;;;;;31.07;18.60;;;-7.50;99.90;;;;;;5094519;28;20200;-73
2024/01/21 05:38:12;;;;;;;26.57;17.97;;;-7.50;99.90;;;;;;5094568;28;20220;-73
2024/01/21 05:40:38;;;;;;;25.80;17.47;;;-7.50;99.90;;;;;;5094523;28;20257;-73
2024/01/21 05:43:05;;;;;;;30.47;18.53;;;-7.40;99.90;;;;;;5094355;28;20242;-72
2024/01/21 05:45:32;;;;;;;29.40;17.57;;;-7.30;99.90;;;;;;5094356;28;20218;-72
2024/01/21 05:47:58;;;;;;;25.87;16.73;;;-7.30;99.90;;;;;;5094139;28;20200;-73
2024/01/21 05:50:26;;;;;;;26.90;18.33;;;-7.30;99.90;;;;;;5094244;28;20249;-73
2024/01/21 05:52:53;;;;;;;30.10;18.30;;;-7.20;99.90;;;;;;5093980;28;20663;-73
2024/01/21 05:55:19;;;;;;;27.17;17.53;;;-7.20;99.90;;;;;;5094060;28;20290;-73
2024/01/21 05:57:46;;;;;;;29.37;18.03;;;-7.20;99.90;;;;;;5094022;28;20192;-73
2024/01/21 06:00:14;;;;;;;27.07;17.80;;;-7.00;99.90;;;;;;5093981;28;20258;-73
2024/01/21 06:02:41;;;;;;;24.87;16.33;;;-6.90;99.90;;;;;;5094245;28;20204;-73
2024/01/21 06:05:08;;;;;;;30.57;18.67;;;-6.90;99.90;;;;;;5094086;28;20246;-73
2024/01/21 06:07:36;;;;;;;26.77;17.57;;;-6.70;99.90;;;;;;5093814;28;20878;-73
2024/01/21 06:10:03;;;;;;;28.37;17.10;;;-6.70;99.90;;;;;;5093548;28;20196;-73
2024/01/21 06:12:30;;;;;;;24.30;17.43;;;-6.50;99.90;;;;;;5093607;28;20230;-73
2024/01/21 06:14:56;;;;;;;29.17;18.07;;;-6.50;99.90;;;;;;5093552;28;20228;-73
2024/01/21 06:17:23;;;;;;;27.43;17.80;;;-6.50;99.90;;;;;;5093894;28;20858;-74
2024/01/21 06:19:49;;;;;;;27.27;17.47;;;-6.50;99.90;;;;;;5093823;28;20200;-74
2024/01/21 06:22:16;;;;;;;27.60;17.90;;;-6.50;99.90;;;;;;5093696;28;20200;-73
2024/01/21 06:24:44;;;;;;;26.90;17.37;;;-6.40;99.90;;;;;;5093570;28;20209;-73
2024/01/21 06:27:11;;;;;;;24.47;16.63;;;-6.40;99.90;;;;;;5093476;28;20250;-74
2024/01/21 06:29:37;;;;;;;24.63;16.97;;;-6.40;99.90;;;;;;5093561;28;20537;-73
2024/01/21 06:32:04;;;;;;;25.00;16.20;;;-6.40;99.90;;;;;;5093712;28;20230;-73
2024/01/21 06:34:31;;;;;;;24.60;15.93;;;-6.50;99.90;;;;;;5093503;28;20228;-73
2024/01/21 06:36:58;;;;;;;25.10;16.90;;;-6.40;99.90;;;;;;5093508;28;20200;-72
2024/01/21 06:39:24;;;;;;;25.50;16.43;;;-6.40;99.90;;;;;;5093320;28;20249;-72
2024/01/21 06:41:52;;;;;;;24.77;15.63;;;-6.40;99.90;;;;;;5093257;28;20193;-73
2024/01/21 06:44:19;;;;;;;27.23;16.47;;;-6.30;99.90;;;;;;5093130;28;20678;-73
2024/01/21 06:46:46;;;;;;;24.17;15.27;;;-6.30;99.90;;;;;;5093037;28;20675;-73
2024/01/21 06:49:12;;;;;;;21.40;15.33;;;-6.40;99.90;;;;;;5093204;28;20388;-74
2024/01/21 06:51:46;;;;;;;24.17;16.20;;;-6.30;99.90;;;;;;5093301;28;20214;-74
2024/01/21 06:54:13;;;;;;;27.87;15.57;;;-6.30;99.90;;;;;;5093159;28;20311;-73
2024/01/21 06:56:40;;;;;;;21.27;14.97;;;-6.20;99.90;;;;;;5093009;28;20237;-73
2024/01/21 06:59:08;;;;;;;23.67;16.80;;;-6.10;99.90;;;;;;5092958;28;20655;-73
2024/01/21 07:01:34;;;;;;;22.40;16.33;;;-6.00;99.90;;;;;;5093183;28;20196;-73
2024/01/21 07:04:01;;;;;;;22.20;15.63;;;-6.00;99.90;;;;;;5092920;28;20537;-73
2024/01/21 07:06:28;;;;;;;21.63;15.50;;;-6.00;99.90;;;;;;5092776;28;20728;-74
2024/01/21 07:08:55;;;;;;;20.90;14.43;;;-5.90;99.90;;;;;;5092906;28;20196;-73
2024/01/21 07:11:22;;;;;;;20.23;14.60;;;-5.90;99.90;;;;;;5092848;28;20206;-73
2024/01/21 07:13:48;;;;;;;21.73;14.43;;;-6.00;99.90;;;;;;5092884;28;20224;-73
2024/01/21 07:16:16;;;;;;;22.67;15.60;;;-6.00;99.90;;;;;;5092818;28;20196;-73
2024/01/21 07:18:43;;;;;;;22.30;15.27;;;-6.00;99.90;;;;;;5092771;28;20664;-73
2024/01/21 07:21:10;;;;;;;25.87;16.30;;;-5.90;99.90;;;;;;5092803;28;20230;-74
2024/01/21 07:23:39;;;;;;;22.50;15.37;;;-5.80;99.90;;;;;;5094888;28;20269;-74
2024/01/21 07:26:05;;;;;;;21.50;14.90;;;-5.70;99.90;;;;;;5096980;28;20223;-73
2024/01/21 07:28:32;;;;;;;22.40;15.23;;;-5.70;99.90;;;;;;5096934;28;20233;-74
2024/01/21 07:30:59;;;;;;;21.50;14.93;;;-5.70;99.90;;;;;;5097145;28;20295;-73
2024/01/21 07:33:27;;;;;;;22.03;15.47;;;-5.70;99.90;;;;;;5096863;28;20532;-73
2024/01/21 07:35:53;;;;;;;21.47;16.20;;;-5.50;99.90;;;;;;5096690;28;20228;-73
2024/01/21 07:38:20;;;;;;;23.13;16.97;;;-5.40;99.90;;;;;;5096985;28;20271;-74
2024/01/21 07:40:47;;;;;;;25.17;17.03;;;-5.10;99.90;;;;;;5097088;28;20199;-73
2024/01/21 07:43:14;;;;;;;23.90;15.57;;;-5.00;99.90;;;;;;5104107;28;20192;-73
2024/01/21 07:45:41;;;;;;;21.73;16.67;;;-4.90;99.90;;;;;;5096756;28;20247;-73
2024/01/21 07:48:08;;;;;;;23.77;17.63;;;-4.90;99.90;;;;;;5096917;28;20197;-74
2024/01/21 07:50:36;;;;;;;22.60;16.57;;;-4.80;99.90;;;;;;5096563;28;20193;-73
2024/01/21 07:53:03;;;;;;;20.40;15.53;;;-4.70;99.90;;;;;;5096470;28;20204;-74
2024/01/21 07:55:30;;;;;;;24.77;16.63;;;-4.60;99.90;;;;;;5096666;28;20328;-72
2024/01/21 07:57:56;;;;;;;22.33;16.20;;;-4.60;99.90;;;;;;5096404;28;20197;-73
2024/01/21 08:00:23;;;;;;;23.80;17.13;;;-4.60;99.90;;;;;;5096302;28;20578;-73
2024/01/21 08:02:50;;;;;;;23.03;16.90;;;-4.50;99.90;;;;;;5096506;28;20204;-73
2024/01/21 08:05:17;;;;;;;24.50;16.53;;;-4.40;99.90;;;;;;5096099;28;20284;-73
2024/01/21 08:07:46;;;;;;;23.57;16.80;;;-4.40;99.90;;;;;;5096197;28;20198;-73
2024/01/21 08:10:13;;;;;;;23.50;16.60;;;-4.30;99.90;;;;;;5096224;28;20209;-73
2024/01/21 08:12:39;;;;;;;22.70;16.77;;;-4.30;99.90;;;;;;5096161;28;20195;-73
2024/01/21 08:15:06;;;;;;;24.50;17.40;;;-4.20;99.90;;;;;;5096152;28;20224;-73
2024/01/21 08:17:33;;;;;;;23.90;17.07;;;-4.00;99.90;;;;;;5096063;28;20206;-74
2024/01/21 08:20:00;;;;;;;21.80;17.03;;;-3.80;99.90;;;;;;5096030;28;20293;-74
2024/01/21 08:22:26;;;;;;;24.03;19.13;;;-3.60;99.90;;;;;;5096400;28;20195;-72
2024/01/21 08:24:54;;;;;;;23.13;17.60;;;-3.50;99.90;;;;;;5095916;28;20543;-73
2024/01/21 08:27:21;;;;;;;24.87;18.33;;;-3.30;99.90;;;;;;5095821;28;20234;-73
2024/01/21 08:29:48;;;;;;;23.60;16.90;;;-3.30;99.90;;;;;;5095852;28;20206;-74
2024/01/21 08:32:14;;;;;;;22.47;16.83;;;-3.20;99.90;;;;;;5095712;28;20606;-73
2024/01/21 08:34:41;;;;;;;24.27;17.77;;;-3.20;99.90;;;;;;5095040;28;20685;-73
2024/01/21 08:37:08;;;;;;;26.03;19.17;;;-3.30;99.90;;;;;;5095808;28;20207;-73
2024/01/21 08:39:34;;;;;;;30.23;19.70;;;-3.20;99.90;;;;;;5095754;28;20196;-73
2024/01/21 08:42:03;;;;;;;27.57;19.90;;;-3.30;99.90;;;;;;5095758;28;20257;-75
2024/01/21 08:44:29;;;;;;;23.17;17.20;;;-3.30;99.90;;;;;;5095589;28;20196;-74
2024/01/21 08:46:57;;;;;;;21.53;15.93;;;-3.30;99.90;;;;;;5095375;28;20705;-74
2024/01/21 08:49:26;;;;;;;22.83;16.70;;;-3.20;99.90;;;;;;5095656;28;20371;-74
2024/01/21 08:51:52;;;;;;;23.00;16.90;;;-3.10;99.90;;;;;;5095735;28;20220;-73
2024/01/21 08:54:19;;;;;;;23.23;17.17;;;-3.20;99.90;;;;;;5095511;28;20620;-74
2024/01/21 08:56:46;;;;;;;22.13;16.90;;;-3.20;99.90;;;;;;5095357;28;20200;-73
2024/01/21 08:59:14;;;;;;;19.13;15.50;;;-3.10;99.90;;;;;;5095499;28;20210;-73
2024/01/21 09:01:40;;;;;;;22.13;16.27;;;-3.10;99.90;;;;;;5095386;28;20192;-74
2024/01/21 09:04:07;;;;;;;23.37;16.87;;;-2.90;99.90;;;;;;5095569;28;20204;-75
2024/01/21 09:06:35;;;;;;;21.03;15.90;;;-2.70;99.90;;;;;;5095478;28;20208;-75
2024/01/21 09:09:02;;;;;;;22.93;16.47;;;-2.30;99.90;;;;;;5095258;28;20552;-75
2024/01/21 09:11:29;;;;;;;19.30;15.27;;;-1.90;99.90;;;;;;5095242;28;20196;-75
2024/01/21 09:13:55;;;;;;;19.40;14.60;;;-1.70;99.90;;;;;;5095352;28;20242;-75
2024/01/21 09:16:23;;;;;;;19.63;14.93;;;-1.50;99.90;;;;;;5095171;28;20231;-75
2024/01/21 09:18:50;;;;;;;19.83;14.83;;;-1.40;99.90;;;;;;5095288;28;20284;-74
2024/01/21 09:21:17;;;;;;;19.17;14.17;;;-1.30;99.90;;;;;;5095293;28;20200;-76
2024/01/21 09:23:43;;;;;;;19.63;13.33;;;-1.00;99.90;;;;;;5094728;28;20540;-74
2024/01/21 09:26:10;;;;;;;21.23;14.53;;;-0.90;99.90;;;;;;5094801;28;20200;-73
2024/01/21 09:28:36;;;;;;;17.93;14.17;;;-1.10;99.90;;;;;;5094417;28;20228;-73
2024/01/21 09:31:04;;;;;;;17.00;13.73;;;-1.10;99.90;;;;;;5094788;28;20254;-72
2024/01/21 09:33:31;;;;;;;19.23;15.10;;;-0.80;99.90;;;;;;5094665;28;20246;-72
2024/01/21 09:35:58;;;;;;;20.93;14.33;;;-1.00;99.90;;;;;;5094581;28;20229;-74
2024/01/21 09:38:25;;;;;;;17.90;14.30;;;-0.80;99.90;;;;;;5094631;28;20249;-76
2024/01/21 09:41:00;;;;;;;17.83;14.67;;;-0.80;99.90;;;;;;5094919;28;20254;-74
2024/01/21 09:43:29;;;;;;;19.97;14.47;;;-0.80;99.90;;;;;;5094618;28;20644;-75
2024/01/21 09:45:56;;;;;;;18.10;13.23;;;-0.50;99.90;;;;;;5093929;28;20196;-75
2024/01/21 09:48:25;;;;;;;20.60;13.90;;;-0.30;99.90;;;;;;5094677;28;20247;-76
2024/01/21 09:50:55;;;;;;;16.07;13.47;;;-0.30;99.90;;;;;;5094531;28;20233;-75
2024/01/21 09:53:22;;;;;;;16.27;12.60;;;0.00;99.90;;;;;;5094516;28;20719;-74
2024/01/21 09:55:56;;;;;;;17.03;13.03;;;-0.10;99.90;;;;;;5094140;28;20221;-75
2024/01/21 09:58:25;;;;;;;17.53;13.93;;;-0.10;99.90;;;;;;5094737;28;20245;-75
2024/01/21 10:00:52;;;;;;;19.03;14.90;;;-0.20;99.90;;;;;;5094523;28;20291;-76
2024/01/21 10:03:19;;;;;;;18.00;15.43;;;-0.10;99.90;;;;;;5094265;28;20670;-73
2024/01/21 10:05:46;;;;;;;18.53;14.20;;;-0.10;99.90;;;;;;5094486;28;20619;-75
2024/01/21 10:08:14;;;;;;;17.17;13.53;;;0.10;99.90;;;;;;5093928;28;20559;-73
2024/01/21 10:10:43;;;;;;;19.97;14.03;;;0.00;99.90;;;;;;5094218;28;20228;-73
2024/01/21 10:13:09;;;;;;;16.47;13.33;;;0.50;99.90;;;;;;5094248;28;20198;-75
2024/01/21 10:15:36;;;;;;;17.67;14.13;;;0.80;99.90;;;;;;5093982;28;20216;-75
2024/01/21 10:18:03;;;;;;;18.13;13.20;;;1.00;99.90;;;;;;5093929;28;20206;-74
2024/01/21 10:20:30;;;;;;;18.40;14.43;;;1.10;99.90;;;;;;5093935;28;20220;-72
2024/01/21 10:23:09;;;;;;;19.33;14.67;;;1.10;99.90;;;;;;5093518;28;20250;-73
2024/01/21 10:25:38;;;;;;;20.33;15.00;;;1.30;99.90;;;;;;5091226;28;20302;-74
2024/01/21 10:28:05;;;;;;;20.43;15.83;;;1.10;99.90;;;;;;5090337;28;20315;-73
2024/01/21 10:30:33;;;;;;;19.27;15.20;;;1.30;99.90;;;;;;5090468;28;20203;-75
2024/01/21 10:33:01;;;;;;;21.37;14.80;;;1.40;99.90;;;;;;5090907;28;20227;-75
2024/01/21 10:35:27;;;;;;;20.83;16.20;;;1.80;99.90;;;;;;5089984;28;20228;-75
2024/01/21 10:37:55;;;;;;;18.50;14.67;;;2.30;99.90;;;;;;5090383;28;20204;-75
2024/01/21 10:40:22;;;;;;;20.37;15.33;;;2.80;99.90;;;;;;5090137;28;20310;-75
2024/01/21 10:42:55;;;;;;;17.77;15.10;;;3.00;99.90;;;;;;5089985;28;20215;-75
2024/01/21 10:45:23;;;;;;;19.83;15.97;;;2.60;99.90;;;;;;5090218;28;20204;-75
2024/01/21 10:47:51;;;;;;;19.40;16.33;;;2.20;99.90;;;;;;5089903;28;20233;-75
2024/01/21 10:50:20;;;;;;;20.57;16.07;;;2.30;99.90;;;;;;5089897;28;20659;-75
2024/01/21 10:52:48;;;;;;;19.40;15.77;;;2.60;99.90;;;;;;5090125;28;20200;-75
2024/01/21 10:55:15;;;;;;;19.23;16.03;;;2.80;99.90;;;;;;5089703;28;20307;-75
2024/01/21 10:57:42;;;;;;;20.17;15.23;;;3.00;99.90;;;;;;5089880;28;20651;-75
2024/01/21 11:00:11;;;;;;;20.40;16.10;;;3.10;99.90;;;;;;5089885;28;20205;-76
2024/01/21 11:02:38;;;;;;;19.53;16.57;;;3.20;99.90;;;;;;5089679;28;20201;-72
2024/01/21 11:05:05;;;;;;;18.57;15.40;;;3.60;99.90;;;;;;5089986;28;20208;-74
2024/01/21 11:07:33;;;;;;;16.83;14.53;;;4.00;99.90;;;;;;5089966;28;20196;-75
2024/01/21 11:10:03;;;;;;;20.33;15.43;;;4.50;99.90;;;;;;5090018;28;20597;-75
2024/01/21 11:12:30;;;;;;;19.03;16.10;;;5.20;99.90;;;;;;5090372;28;20263;-77
2024/01/21 11:14:57;;;;;;;20.73;16.47;;;5.60;97.70;;;;;;5090252;28;20204;-75
2024/01/21 11:17:25;;;;;;;18.30;16.07;;;5.90;96.80;;;;;;5090003;28;20196;-75
2024/01/21 11:19:53;;;;;;;22.13;16.53;;;5.80;95.00;;;;;;5090740;28;20200;-75
2024/01/21 11:22:23;;;;;;;20.83;17.67;;;5.70;95.80;;;;;;5090357;28;20196;-75
2024/01/21 11:24:51;;;;;;;19.00;16.63;;;5.80;94.50;;;;;;5090543;28;20197;-75
2024/01/21 11:27:20;;;;;;;20.47;17.33;;;6.10;93.10;;;;;;5089961;28;20302;-75
2024/01/21 11:29:49;;;;;;;19.40;16.50;;;6.00;92.50;;;;;;5089730;28;20208;-74
2024/01/21 11:32:20;;;;;;;22.43;16.57;;;6.00;92.50;;;;;;5090900;28;20215;-76
2024/01/21 11:34:48;;;;;;;19.97;17.20;;;5.90;92.00;;;;;;5090250;28;20196;-75
2024/01/21 11:37:15;;;;;;;21.60;17.30;;;6.20;92.30;;;;;;5090167;28;20897;-76
2024/01/21 11:39:42;;;;;;;24.47;17.63;;;6.70;90.70;;;;;;5090257;28;20201;-75
2024/01/21 11:42:09;;;;;;;21.40;17.43;;;7.00;90.00;;;;;;5089635;28;20193;-75
2024/01/21 11:44:39;;;;;;;19.03;16.23;;;7.40;87.60;;;;;;5090490;28;20200;-78
2024/01/21 11:47:07;;;;;;;22.07;16.67;;;7.70;83.60;;;;;;5090503;28;20682;-75
2024/01/21 11:49:35;;;;;;;27.30;21.10;;;6.90;84.20;;;;;;5090106;28;20204;-75
2024/01/21 11:52:06;;;;;;;19.10;15.87;;;6.50;86.70;;;;;;5090280;28;20197;-76
2024/01/21 11:54:33;;;;;;;23.33;16.77;;;6.00;86.70;;;;;;5089585;28;20273;-75
2024/01/21 11:57:00;;;;;;;25.90;17.67;;;5.70;87.80;;;;;;5090062;28;20289;-74
2024/01/21 11:59:27;;;;;;;21.93;16.87;;;5.10;87.40;;;;;;5089907;28;20197;-76
2024/01/21 12:01:56;;;;;;;22.90;16.40;;;4.40;88.80;;;;;;5089743;28;20208;-77
2024/01/21 12:04:24;;;;;;;20.37;17.43;;;3.80;92.60;;;;;;5092630;28;20299;-74
2024/01/21 12:06:52;;;;;;;21.70;16.90;;;3.60;93.60;;;;;;5092392;28;20200;-74
2024/01/21 12:09:21;;;;;;;21.33;15.53;;;3.10;95.20;;;;;;5093949;28;20196;-74
2024/01/21 12:11:50;;;;;;;21.23;16.27;;;2.80;96.70;;;;;;5095992;28;20246;-75
2024/01/21 12:14:17;;;;;;;22.57;17.30;;;2.70;98.10;;;;;;5095683;28;20200;-75
2024/01/21 12:16:44;;;;;;;19.73;15.80;;;2.40;99.90;;;;;;5073334;28;20228;-75
2024/01/21 12:19:12;;;;;;;20.67;16.30;;;2.30;99.90;;;;;;5074996;28;20204;-74
2024/01/21 12:21:38;;;;;;;23.40;16.60;;;2.50;99.90;;;;;;5062459;28;20198;-77
2024/01/21 12:24:07;;;;;;;22.47;17.43;;;2.70;99.90;;;;;;5056052;28;20240;-76
2024/01/21 12:26:34;;;;;;;23.20;16.80;;;2.60;99.90;;;;;;5055841;28;20197;-73
2024/01/21 12:29:02;;;;;;;23.07;16.47;;;2.80;99.90;;;;;;5080641;28;20219;-73